Time;durP1;ratioP1;P1;durP2;ratioP2;P2;SDS_P1;SDS_P2;PMS_P1;PMS_P2;Temp;Humidity;BMP_temperature;BMP_pressure;BME280_temperature;BME280_humidity;BME280_pressure;Samples;Min_cycle;Max_cycle;Signal;HPM_P1;HPM_P2
2023/05/29 00:01:28;;;;;;;5.47;3.80;;;;;;;;;;5052959;28;20033;-68
2023/05/29 00:03:54;;;;;;;6.78;4.20;;;;;;;;;;5052467;28;20396;-68
2023/05/29 00:06:21;;;;;;;7.07;4.05;;;;;;;;;;5052879;28;20021;-69
2023/05/29 00:08:47;;;;;;;7.80;4.10;;;;;;;;;;5052981;28;20021;-69
2023/05/29 00:11:14;;;;;;;9.63;3.97;;;;;;;;;;5052881;28;20392;-68
2023/05/29 00:13:40;;;;;;;8.50;4.50;;;;;;;;;;5053109;28;20033;-68
2023/05/29 00:16:09;;;;;;;6.20;4.05;;;;;;;;;;5052732;28;20021;-68
2023/05/29 00:18:36;;;;;;;4.80;4.00;;;;;;;;;;5052929;28;20496;-69
2023/05/29 00:21:02;;;;;;;9.82;3.70;;;;;;;;;;5052857;28;20031;-69
2023/05/29 00:23:29;;;;;;;9.43;4.35;;;;;;;;;;5052586;28;20543;-68
2023/05/29 00:25:55;;;;;;;6.72;3.67;;;;;;;;;;5085105;28;20039;-68
2023/05/29 00:28:21;;;;;;;7.13;4.10;;;;;;;;;;5052342;28;20033;-69
2023/05/29 00:30:48;;;;;;;8.00;5.05;;;;;;;;;;5052869;28;20033;-68
2023/05/29 00:33:14;;;;;;;10.80;3.95;;;;;;;;;;5052877;28;20017;-69
2023/05/29 00:35:40;;;;;;;6.82;4.22;;;;;;;;;;5052429;28;20519;-68
2023/05/29 00:38:07;;;;;;;8.27;4.03;;;;;;;;;;5052483;28;20033;-68
2023/05/29 00:40:33;;;;;;;5.97;3.92;;;;;;;;;;5052442;28;20028;-69
2023/05/29 00:42:59;;;;;;;6.50;4.30;;;;;;;;;;5052043;28;20059;-68
2023/05/29 00:45:26;;;;;;;5.10;3.83;;;;;;;;;;5052538;28;20027;-68
2023/05/29 00:47:53;;;;;;;8.70;4.45;;;;;;;;;;5052296;28;20393;-68
2023/05/29 00:50:22;;;;;;;8.10;3.70;;;;;;;;;;5052203;28;20021;-69
2023/05/29 00:52:48;;;;;;;6.05;4.13;;;;;;;;;;5052481;28;20023;-69
2023/05/29 00:55:14;;;;;;;8.27;4.28;;;;;;;;;;5052560;28;20025;-68
2023/05/29 00:57:41;;;;;;;8.80;4.57;;;;;;;;;;5051828;28;20036;-68
2023/05/29 01:00:08;;;;;;;10.02;4.03;;;;;;;;;;5052083;28;20027;-69
2023/05/29 01:02:36;;;;;;;8.90;4.20;;;;;;;;;;5052126;28;20387;-69
2023/05/29 01:05:03;;;;;;;8.68;4.13;;;;;;;;;;5052040;28;20456;-68
2023/05/29 01:07:29;;;;;;;8.82;4.25;;;;;;;;;;5052304;28;20031;-69
2023/05/29 01:09:56;;;;;;;6.60;4.22;;;;;;;;;;5052024;28;20021;-68
2023/05/29 01:12:43;;;;;;;6.00;4.15;;;;;;;;;;5051995;28;20318;-68
2023/05/29 01:15:10;;;;;;;7.88;4.10;;;;;;;;;;5052024;28;20036;-69
2023/05/29 01:17:36;;;;;;;9.18;4.30;;;;;;;;;;5052179;28;20059;-68
2023/05/29 01:20:04;;;;;;;10.05;4.07;;;;;;;;;;5050634;28;20021;-68
2023/05/29 01:22:31;;;;;;;7.55;4.50;;;;;;;;;;5051833;28;20039;-68
2023/05/29 01:25:20;;;;;;;7.03;4.28;;;;;;;;;;5051882;28;20036;-69
2023/05/29 01:27:47;;;;;;;8.25;4.18;;;;;;;;;;5051871;28;20029;-68
2023/05/29 01:30:15;;;;;;;6.45;4.35;;;;;;;;;;5051760;28;20014;-68
2023/05/29 01:32:41;;;;;;;10.30;4.70;;;;;;;;;;5050603;28;20037;-68
2023/05/29 01:35:08;;;;;;;9.80;4.07;;;;;;;;;;5051858;28;20031;-68
2023/05/29 01:37:35;;;;;;;8.27;4.07;;;;;;;;;;5051810;28;20025;-69
2023/05/29 01:40:01;;;;;;;6.90;3.92;;;;;;;;;;5052077;28;20028;-69
2023/05/29 01:42:29;;;;;;;7.70;4.07;;;;;;;;;;5051475;28;20497;-68
2023/05/29 01:44:56;;;;;;;10.80;4.50;;;;;;;;;;5051601;28;20025;-68
2023/05/29 01:47:23;;;;;;;6.72;4.05;;;;;;;;;;5050575;28;20404;-68
2023/05/29 01:49:50;;;;;;;8.98;4.78;;;;;;;;;;5051613;28;20025;-68
2023/05/29 01:52:17;;;;;;;8.85;4.40;;;;;;;;;;5051631;28;20029;-68
2023/05/29 01:54:44;;;;;;;7.07;4.40;;;;;;;;;;5051587;28;20367;-69
2023/05/29 01:57:11;;;;;;;8.40;4.80;;;;;;;;;;5051444;28;20022;-69
2023/05/29 01:59:38;;;;;;;15.20;4.82;;;;;;;;;;5051535;28;20480;-68
2023/05/29 02:02:12;;;;;;;9.68;4.70;;;;;;;;;;5051410;28;20455;-68
2023/05/29 02:04:38;;;;;;;7.88;4.30;;;;;;;;;;5051699;28;20389;-68
2023/05/29 02:07:06;;;;;;;7.38;4.25;;;;;;;;;;5051362;28;20316;-68
2023/05/29 02:09:32;;;;;;;13.15;4.45;;;;;;;;;;5051456;28;20025;-68
2023/05/29 02:11:58;;;;;;;11.60;4.97;;;;;;;;;;5051277;28;20078;-68
2023/05/29 02:14:25;;;;;;;7.72;4.65;;;;;;;;;;5051380;28;20017;-68
2023/05/29 02:16:51;;;;;;;6.82;4.05;;;;;;;;;;5051526;28;20392;-68
2023/05/29 02:19:18;;;;;;;14.18;5.13;;;;;;;;;;5051454;28;20028;-68
2023/05/29 02:21:44;;;;;;;11.48;4.65;;;;;;;;;;5051550;28;20037;-68
2023/05/29 02:24:11;;;;;;;9.57;4.43;;;;;;;;;;5051160;28;20501;-68
2023/05/29 02:26:37;;;;;;;9.02;4.70;;;;;;;;;;5053461;28;20021;-68
2023/05/29 02:29:07;;;;;;;9.90;4.32;;;;;;;;;;5054841;28;20031;-68
2023/05/29 02:31:33;;;;;;;11.00;4.38;;;;;;;;;;5055072;28;20025;-68
2023/05/29 02:33:59;;;;;;;11.00;4.90;;;;;;;;;;5055203;28;20023;-69
2023/05/29 02:36:27;;;;;;;8.48;4.55;;;;;;;;;;5055132;28;20035;-68
2023/05/29 02:38:54;;;;;;;11.02;4.47;;;;;;;;;;5054540;28;20482;-68
2023/05/29 02:41:20;;;;;;;10.13;4.97;;;;;;;;;;5054755;28;20396;-68
2023/05/29 02:43:47;;;;;;;9.55;4.95;;;;;;;;;;5054461;28;20039;-68
2023/05/29 02:46:13;;;;;;;6.50;4.18;;;;;;;;;;5054930;28;20021;-68
2023/05/29 02:48:39;;;;;;;10.30;5.18;;;;;;;;;;5054627;28;20380;-69
2023/05/29 02:51:06;;;;;;;11.57;5.22;;;;;;;;;;5054437;28;20021;-69
2023/05/29 02:53:32;;;;;;;10.25;4.72;;;;;;;;;;5054261;28;20027;-68
2023/05/29 02:55:58;;;;;;;10.10;4.90;;;;;;;;;;5054543;28;20082;-69
2023/05/29 02:58:25;;;;;;;12.07;5.28;;;;;;;;;;5054427;28;20029;-68
2023/05/29 03:00:52;;;;;;;16.40;5.28;;;;;;;;;;5054739;28;20035;-68
2023/05/29 03:03:18;;;;;;;12.65;5.57;;;;;;;;;;5054215;28;20029;-68
2023/05/29 03:05:46;;;;;;;7.85;4.45;;;;;;;;;;5053864;28;20482;-68
2023/05/29 03:08:12;;;;;;;8.60;4.38;;;;;;;;;;5053903;28;20490;-68
2023/05/29 03:10:39;;;;;;;10.95;5.45;;;;;;;;;;5054252;28;20039;-68
2023/05/29 03:13:05;;;;;;;12.15;4.60;;;;;;;;;;5054017;28;20039;-68
2023/05/29 03:15:31;;;;;;;6.85;4.57;;;;;;;;;;5054341;28;20051;-68
2023/05/29 03:17:57;;;;;;;7.95;4.95;;;;;;;;;;5052949;28;20033;-68
2023/05/29 03:20:24;;;;;;;9.35;5.03;;;;;;;;;;5054043;28;20024;-68
2023/05/29 03:22:50;;;;;;;13.68;4.95;;;;;;;;;;5053801;28;20409;-68
2023/05/29 03:25:17;;;;;;;11.00;5.00;;;;;;;;;;5054013;28;20028;-68
2023/05/29 03:27:43;;;;;;;10.10;4.80;;;;;;;;;;5054228;28;20029;-68
2023/05/29 03:30:09;;;;;;;8.27;4.32;;;;;;;;;;5053620;28;20025;-69
2023/05/29 03:32:36;;;;;;;12.65;5.18;;;;;;;;;;5054232;28;20051;-68
2023/05/29 03:35:03;;;;;;;7.47;4.72;;;;;;;;;;5053636;28;20028;-68
2023/05/29 03:37:30;;;;;;;9.82;4.60;;;;;;;;;;5052496;28;20482;-69
2023/05/29 03:39:56;;;;;;;7.53;4.53;;;;;;;;;;5053767;28;20025;-68
2023/05/29 03:42:22;;;;;;;12.93;4.88;;;;;;;;;;5053463;28;20070;-68
2023/05/29 03:44:48;;;;;;;10.88;5.25;;;;;;;;;;5053527;28;20025;-68
2023/05/29 03:47:15;;;;;;;8.95;4.80;;;;;;;;;;5053362;28;20027;-68
2023/05/29 03:49:41;;;;;;;6.22;4.50;;;;;;;;;;5053448;28;20032;-69
2023/05/29 03:52:07;;;;;;;11.15;5.07;;;;;;;;;;5053218;28;20047;-68
2023/05/29 03:54:34;;;;;;;7.32;4.70;;;;;;;;;;5053413;28;20511;-68
2023/05/29 03:57:01;;;;;;;12.55;4.78;;;;;;;;;;5053207;28;20024;-68
2023/05/29 03:59:27;;;;;;;8.88;5.20;;;;;;;;;;5053082;28;20507;-68
2023/05/29 04:01:54;;;;;;;8.73;5.07;;;;;;;;;;5053418;28;20082;-68
2023/05/29 04:04:20;;;;;;;9.15;5.30;;;;;;;;;;5052994;28;20021;-68
2023/05/29 04:06:46;;;;;;;9.38;4.72;;;;;;;;;;5053069;28;20021;-69
2023/05/29 04:09:13;;;;;;;8.93;5.28;;;;;;;;;;5053118;28;20486;-68
2023/05/29 04:11:39;;;;;;;13.30;4.88;;;;;;;;;;5052945;28;20025;-69
2023/05/29 04:14:05;;;;;;;11.82;5.68;;;;;;;;;;5053380;28;20025;-68
2023/05/29 04:16:31;;;;;;;10.35;4.82;;;;;;;;;;5052927;28;20082;-68
2023/05/29 04:18:58;;;;;;;13.25;4.80;;;;;;;;;;5053061;28;20025;-68
2023/05/29 04:21:24;;;;;;;8.65;4.85;;;;;;;;;;5052531;28;20129;-68
2023/05/29 04:23:50;;;;;;;9.85;4.75;;;;;;;;;;5052572;28;20063;-68
2023/05/29 04:26:17;;;;;;;14.32;5.35;;;;;;;;;;5052875;28;20025;-69
2023/05/29 04:28:43;;;;;;;6.85;4.85;;;;;;;;;;5052625;28;20494;-68
2023/05/29 04:31:13;;;;;;;9.30;5.43;;;;;;;;;;5052871;28;20021;-68
2023/05/29 04:33:41;;;;;;;7.97;5.10;;;;;;;;;;5052571;28;20439;-68
2023/05/29 04:36:08;;;;;;;10.25;5.30;;;;;;;;;;5052126;28;20025;-69
2023/05/29 04:38:36;;;;;;;15.20;4.97;;;;;;;;;;5052651;28;20017;-68
2023/05/29 04:41:03;;;;;;;7.47;4.85;;;;;;;;;;5052403;28;20033;-68
2023/05/29 04:43:29;;;;;;;8.35;4.90;;;;;;;;;;5052461;28;20041;-68
2023/05/29 04:45:55;;;;;;;8.95;5.13;;;;;;;;;;5052439;28;20021;-68
2023/05/29 04:48:22;;;;;;;9.70;5.45;;;;;;;;;;5051898;28;20021;-68
2023/05/29 04:50:48;;;;;;;8.55;4.88;;;;;;;;;;5052424;28;20021;-68
2023/05/29 04:53:15;;;;;;;9.70;5.10;;;;;;;;;;5052453;28;20031;-68
2023/05/29 04:55:41;;;;;;;9.30;4.95;;;;;;;;;;5052122;28;20025;-68
2023/05/29 04:58:08;;;;;;;9.52;4.82;;;;;;;;;;5051997;28;20379;-68
2023/05/29 05:00:34;;;;;;;10.32;4.90;;;;;;;;;;5051975;28;20028;-68
2023/05/29 05:03:00;;;;;;;12.32;4.88;;;;;;;;;;5052089;28;20017;-68
2023/05/29 05:05:27;;;;;;;6.90;4.53;;;;;;;;;;5051956;28;20440;-68
2023/05/29 05:07:53;;;;;;;9.25;4.93;;;;;;;;;;5052100;28;20021;-68
2023/05/29 05:10:20;;;;;;;10.30;5.13;;;;;;;;;;5052134;28;20033;-68
2023/05/29 05:12:46;;;;;;;11.10;5.47;;;;;;;;;;5051921;28;20044;-68
2023/05/29 05:15:13;;;;;;;7.00;4.85;;;;;;;;;;5050716;28;20351;-68
2023/05/29 05:17:40;;;;;;;10.77;5.43;;;;;;;;;;5051876;28;20036;-68
2023/05/29 05:20:08;;;;;;;10.77;5.15;;;;;;;;;;5051576;28;20432;-68
2023/05/29 05:22:35;;;;;;;11.50;5.50;;;;;;;;;;5052327;28;20482;-68
2023/05/29 05:25:01;;;;;;;8.60;5.05;;;;;;;;;;5051847;28;20036;-69
2023/05/29 05:27:27;;;;;;;14.63;5.60;;;;;;;;;;5051941;28;20473;-68
2023/05/29 05:29:54;;;;;;;10.43;4.90;;;;;;;;;;5052064;28;20033;-68
2023/05/29 05:32:20;;;;;;;14.02;5.80;;;;;;;;;;5051688;28;20396;-68
2023/05/29 05:34:46;;;;;;;9.73;4.78;;;;;;;;;;5051694;28;20044;-68
2023/05/29 05:37:13;;;;;;;11.93;5.05;;;;;;;;;;5052134;28;20025;-69
2023/05/29 05:39:39;;;;;;;9.90;5.55;;;;;;;;;;5051686;28;20393;-69
2023/05/29 05:42:06;;;;;;;10.02;5.43;;;;;;;;;;5051728;28;20025;-69
2023/05/29 05:44:32;;;;;;;11.25;5.30;;;;;;;;;;5050586;28;20032;-68
2023/05/29 05:46:58;;;;;;;9.55;5.10;;;;;;;;;;5052043;28;20036;-68
2023/05/29 05:49:25;;;;;;;7.82;4.65;;;;;;;;;;5051401;28;20021;-68
2023/05/29 05:51:51;;;;;;;9.90;4.85;;;;;;;;;;5051547;28;20370;-68
2023/05/29 05:54:17;;;;;;;9.50;5.20;;;;;;;;;;5051676;28;20025;-68
2023/05/29 05:56:44;;;;;;;14.80;5.18;;;;;;;;;;5051701;28;20041;-68
2023/05/29 05:59:10;;;;;;;13.35;5.72;;;;;;;;;;5051823;28;20040;-68
2023/05/29 06:01:37;;;;;;;8.00;5.80;;;;;;;;;;5053942;28;20481;-68
2023/05/29 06:04:03;;;;;;;10.02;5.30;;;;;;;;;;5055228;28;20031;-68
2023/05/29 06:06:31;;;;;;;10.07;5.65;;;;;;;;;;5055457;28;20028;-69
2023/05/29 06:08:58;;;;;;;8.77;5.30;;;;;;;;;;5055242;28;20025;-68
2023/05/29 06:11:25;;;;;;;9.93;5.15;;;;;;;;;;5055345;28;20027;-69
2023/05/29 06:13:52;;;;;;;10.65;4.97;;;;;;;;;;5055173;28;20393;-69
2023/05/29 06:16:19;;;;;;;10.65;4.78;;;;;;;;;;5054888;28;20023;-68
2023/05/29 06:18:45;;;;;;;15.13;5.47;;;;;;;;;;5055328;28;20511;-69
2023/05/29 06:21:14;;;;;;;8.60;4.80;;;;;;;;;;5055101;28;20039;-68
2023/05/29 06:23:41;;;;;;;11.18;5.30;;;;;;;;;;5054883;28;20089;-68
2023/05/29 06:26:07;;;;;;;10.05;5.40;;;;;;;;;;5055093;28;20029;-68
2023/05/29 06:28:34;;;;;;;9.90;4.65;;;;;;;;;;5055064;28;20017;-68
2023/05/29 06:31:00;;;;;;;11.45;5.25;;;;;;;;;;5054642;28;20021;-68
2023/05/29 06:33:26;;;;;;;9.20;5.35;;;;;;;;;;5054658;28;20036;-68
2023/05/29 06:35:53;;;;;;;11.07;5.25;;;;;;;;;;5055105;28;20028;-68
2023/05/29 06:38:19;;;;;;;7.97;4.72;;;;;;;;;;5054794;28;20029;-68
2023/05/29 06:40:45;;;;;;;9.45;4.82;;;;;;;;;;5054770;28;20028;-68
2023/05/29 06:43:12;;;;;;;10.63;5.13;;;;;;;;;;5055073;28;20025;-68
2023/05/29 06:45:38;;;;;;;11.65;5.60;;;;;;;;;;5054617;28;20017;-68
2023/05/29 06:48:05;;;;;;;8.85;5.40;;;;;;;;;;5053521;28;20035;-68
2023/05/29 06:50:33;;;;;;;8.82;4.82;;;;;;;;;;5054486;28;20023;-68
2023/05/29 06:53:00;;;;;;;10.82;5.15;;;;;;;;;;5054557;28;20035;-69
2023/05/29 06:55:26;;;;;;;9.07;4.35;;;;;;;;;;5054499;28;20398;-69
2023/05/29 06:57:52;;;;;;;8.82;4.50;;;;;;;;;;5054205;28;20055;-68
2023/05/29 07:00:19;;;;;;;8.10;4.90;;;;;;;;;;5054093;28;20021;-68
2023/05/29 07:02:45;;;;;;;8.15;4.68;;;;;;;;;;5054418;28;20035;-69
2023/05/29 07:05:11;;;;;;;11.88;5.22;;;;;;;;;;5054277;28;20397;-68
2023/05/29 07:07:38;;;;;;;11.52;5.25;;;;;;;;;;5054108;28;20474;-69
2023/05/29 07:10:05;;;;;;;9.85;4.82;;;;;;;;;;5054215;28;20013;-69
2023/05/29 07:12:32;;;;;;;8.10;4.90;;;;;;;;;;5053965;28;20481;-68
2023/05/29 07:14:58;;;;;;;7.15;5.30;;;;;;;;;;5053933;28;20024;-68
2023/05/29 07:17:24;;;;;;;8.13;4.97;;;;;;;;;;5054107;28;20031;-68
2023/05/29 07:19:51;;;;;;;9.18;4.85;;;;;;;;;;5054088;28;20021;-68
2023/05/29 07:22:17;;;;;;;10.38;5.28;;;;;;;;;;5053880;28;20474;-69
2023/05/29 07:24:43;;;;;;;9.98;4.60;;;;;;;;;;5053731;28;20045;-69
2023/05/29 07:27:10;;;;;;;9.80;4.93;;;;;;;;;;5053938;28;20020;-69
2023/05/29 07:29:36;;;;;;;8.93;4.78;;;;;;;;;;5053708;28;20033;-69
2023/05/29 07:32:02;;;;;;;6.70;4.00;;;;;;;;;;5053815;28;20041;-69
2023/05/29 07:34:29;;;;;;;8.57;4.60;;;;;;;;;;5053780;28;20033;-68
2023/05/29 07:37:01;;;;;;;6.95;5.15;;;;;;;;;;5053884;28;20019;-69
2023/05/29 07:39:27;;;;;;;10.95;4.55;;;;;;;;;;5053654;28;20033;-68
2023/05/29 07:41:54;;;;;;;6.35;4.50;;;;;;;;;;5052344;28;20048;-68
2023/05/29 07:44:20;;;;;;;9.10;4.95;;;;;;;;;;5053336;28;20569;-69
2023/05/29 07:46:47;;;;;;;7.15;4.20;;;;;;;;;;5053707;28;20029;-69
2023/05/29 07:49:13;;;;;;;8.98;4.63;;;;;;;;;;5053483;28;20032;-68
2023/05/29 07:51:40;;;;;;;10.07;4.93;;;;;;;;;;5053548;28;20021;-69
2023/05/29 07:54:06;;;;;;;7.68;4.65;;;;;;;;;;5053547;28;20078;-69
2023/05/29 07:56:33;;;;;;;7.07;4.38;;;;;;;;;;5053203;28;20097;-69
2023/05/29 07:59:00;;;;;;;9.98;4.78;;;;;;;;;;5052900;28;20039;-69
2023/05/29 08:01:27;;;;;;;9.50;5.20;;;;;;;;;;5053413;28;20035;-68
2023/05/29 08:03:53;;;;;;;8.88;5.15;;;;;;;;;;5053184;28;20486;-68
2023/05/29 08:06:20;;;;;;;9.77;4.72;;;;;;;;;;5053043;28;20493;-69
2023/05/29 08:08:46;;;;;;;7.70;4.65;;;;;;;;;;5053077;28;20389;-69
2023/05/29 08:11:12;;;;;;;6.22;4.25;;;;;;;;;;5053056;28;20027;-69
2023/05/29 08:13:38;;;;;;;8.05;4.38;;;;;;;;;;5052631;28;20032;-69
2023/05/29 08:16:05;;;;;;;8.70;4.38;;;;;;;;;;5053452;28;20021;-69
2023/05/29 08:18:36;;;;;;;11.07;4.40;;;;;;;;;;5052866;28;20501;-69
2023/05/29 08:21:03;;;;;;;6.68;4.28;;;;;;;;;;5052779;28;20025;-69
2023/05/29 08:23:29;;;;;;;6.15;3.95;;;;;;;;;;5052253;28;20048;-69
2023/05/29 08:25:55;;;;;;;8.82;4.68;;;;;;;;;;5052691;28;20385;-69
2023/05/29 08:28:22;;;;;;;9.90;4.07;;;;;;;;;;5052378;28;20485;-69
2023/05/29 08:30:48;;;;;;;8.23;4.03;;;;;;;;;;5052587;28;20420;-69
2023/05/29 08:33:15;;;;;;;6.13;3.90;;;;;;;;;;5052639;28;20066;-69
2023/05/29 08:35:41;;;;;;;10.57;4.40;;;;;;;;;;5052533;28;20498;-70
2023/05/29 08:38:07;;;;;;;10.88;3.80;;;;;;;;;;5052459;28;20029;-69
2023/05/29 08:40:34;;;;;;;6.97;3.85;;;;;;;;;;5052536;28;20078;-70
2023/05/29 08:43:03;;;;;;;7.32;4.10;;;;;;;;;;5052265;28;20029;-69
2023/05/29 08:45:30;;;;;;;7.67;3.77;;;;;;;;;;5052809;28;20025;-70
2023/05/29 08:47:58;;;;;;;9.32;4.43;;;;;;;;;;5052446;28;20031;-69
2023/05/29 08:50:24;;;;;;;6.00;3.83;;;;;;;;;;5052551;28;20023;-70
2023/05/29 08:52:51;;;;;;;5.93;3.70;;;;;;;;;;5052333;28;20040;-67
2023/05/29 08:55:18;;;;;;;6.88;4.07;;;;;;;;;;5052277;28;20028;-67
2023/05/29 08:57:45;;;;;;;7.60;3.78;;;;;;;;;;5051896;28;20783;-67
2023/05/29 09:00:18;;;;;;;7.20;3.50;;;;;;;;;;5052045;28;20451;-67
2023/05/29 09:02:45;;;;;;;8.30;4.00;;;;;;;;;;5052269;28;20025;-67
2023/05/29 09:05:12;;;;;;;7.85;3.83;;;;;;;;;;5052380;28;20051;-67
2023/05/29 09:07:39;;;;;;;7.75;3.92;;;;;;;;;;5052008;28;20020;-67
2023/05/29 09:10:09;;;;;;;10.60;3.97;;;;;;;;;;5051999;28;20031;-67
2023/05/29 09:12:36;;;;;;;;;;;;;;;;;;5052139;28;20043;-67
2023/05/29 09:15:02;;;;;;;7.28;4.00;;;;;;;;;;5051929;28;19904;-67
2023/05/29 09:17:32;;;;;;;10.15;4.22;;;;;;;;;;5052003;28;20029;-67
2023/05/29 09:20:00;;;;;;;9.07;5.13;;;;;;;;;;5051938;28;20031;-67
2023/05/29 09:22:26;;;;;;;6.88;4.57;;;;;;;;;;5051777;28;20034;-66
2023/05/29 09:24:53;;;;;;;7.55;4.30;;;;;;;;;;5051613;28;20027;-67
2023/05/29 09:27:20;;;;;;;8.35;4.55;;;;;;;;;;5051997;28;20021;-67
2023/05/29 09:29:46;;;;;;;12.70;4.65;;;;;;;;;;5051828;28;20029;-67
2023/05/29 09:32:15;;;;;;;8.52;4.82;;;;;;;;;;5051688;28;20029;-66
2023/05/29 09:34:42;;;;;;;10.85;4.43;;;;;;;;;;5052097;28;20024;-67
2023/05/29 09:37:09;;;;;;;7.78;4.20;;;;;;;;;;5055158;28;20017;-67
2023/05/29 09:39:56;;;;;;;9.77;4.35;;;;;;;;;;5055709;28;20033;-67
2023/05/29 09:42:22;;;;;;;7.88;4.22;;;;;;;;;;5088348;28;20024;-67
2023/05/29 09:44:51;;;;;;;5.60;4.30;;;;;;;;;;5055971;28;20025;-66
2023/05/29 09:47:18;;;;;;;5.00;3.88;;;;;;;;;;5055742;28;20029;-67
2023/05/29 09:49:46;;;;;;;8.57;3.97;;;;;;;;;;5055891;28;20025;-67
2023/05/29 09:52:14;;;;;;;7.43;4.15;;;;;;;;;;5055795;28;20025;-67
2023/05/29 09:54:42;;;;;;;6.55;3.92;;;;;;;;;;5054125;28;20494;-67
2023/05/29 09:57:08;;;;;;;10.13;4.35;;;;;;;;;;5055601;28;20019;-67
2023/05/29 09:59:35;;;;;;;6.85;4.38;;;;;;;;;;5055318;28;20025;-67
2023/05/29 10:02:11;;;;;;;6.25;4.03;;;;;;;;;;5055828;28;20029;-67
2023/05/29 10:04:39;;;;;;;7.63;4.13;;;;;;;;;;5055419;28;20037;-67
2023/05/29 10:07:11;;;;;;;4.88;3.38;;;;;;;;;;5055681;28;20023;-67
2023/05/29 10:09:45;;;;;;;6.35;3.45;;;;;;;;;;5053856;28;20478;-68
2023/05/29 10:12:12;;;;;;;4.80;3.53;;;;;;;;;;5054319;28;20082;-68
2023/05/29 10:14:40;;;;;;;6.35;3.90;;;;;;;;;;5053961;28;20076;-67
2023/05/29 10:17:08;;;;;;;7.88;4.00;;;;;;;;;;5055089;28;20031;-68
2023/05/29 10:19:35;;;;;;;6.88;4.40;;;;;;;;;;5055137;28;20032;-67
2023/05/29 10:22:02;;;;;;;6.88;4.55;;;;;;;;;;5055235;28;20029;-67
2023/05/29 10:24:29;;;;;;;7.45;4.30;;;;;;;;;;5054733;28;20052;-67
2023/05/29 10:26:56;;;;;;;9.68;4.35;;;;;;;;;;5055011;28;20436;-67
2023/05/29 10:29:58;;;;;;;7.03;4.15;;;;;;;;;;5054868;28;20021;-67
2023/05/29 10:32:29;;;;;;;9.18;4.18;;;;;;;;;;5032816;28;20571;-67
2023/05/29 10:35:14;;;;;;;6.65;3.78;;;;;;;;;;5032757;28;20124;-67
2023/05/29 10:37:43;;;;;;;8.18;3.70;;;;;;;;;;5032423;28;20513;-67
2023/05/29 10:40:12;;;;;;;8.00;3.85;;;;;;;;;;5032986;28;20040;-67
2023/05/29 10:42:42;;;;;;;9.68;4.40;;;;;;;;;;5032871;28;20033;-67
2023/05/29 10:45:11;;;;;;;8.45;4.28;;;;;;;;;;5032734;28;20100;-67
2023/05/29 10:47:38;;;;;;;9.65;4.40;;;;;;;;;;5031820;28;20045;-67
2023/05/29 10:50:05;;;;;;;5.55;4.13;;;;;;;;;;5032710;28;20034;-67
2023/05/29 10:52:32;;;;;;;7.82;4.60;;;;;;;;;;5032360;28;20017;-67
2023/05/29 10:54:58;;;;;;;9.95;4.15;;;;;;;;;;5015825;28;20036;-66
2023/05/29 10:57:26;;;;;;;10.10;4.35;;;;;;;;;;5032356;28;20389;-69
2023/05/29 11:00:23;;;;;;;14.48;5.30;;;;;;;;;;5032420;28;20428;-69
2023/05/29 11:02:49;;;;;;;11.70;5.05;;;;;;;;;;5032150;28;20034;-69
2023/05/29 11:05:24;;;;;;;15.25;5.93;;;;;;;;;;5032387;28;20521;-69
2023/05/29 11:07:55;;;;;;;10.20;5.40;;;;;;;;;;5034164;28;20022;-69
2023/05/29 11:10:40;;;;;;;10.63;5.70;;;;;;;;;;5034238;28;20513;-69
2023/05/29 11:13:07;;;;;;;13.93;6.05;;;;;;;;;;5034337;28;20033;-69
2023/05/29 11:15:33;;;;;;;12.52;6.47;;;;;;;;;;5034194;28;20490;-69
2023/05/29 11:18:06;;;;;;;12.02;6.00;;;;;;;;;;5034332;28;20027;-69
2023/05/29 11:20:37;;;;;;;13.27;6.13;;;;;;;;;;5032990;28;20029;-69
2023/05/29 11:23:06;;;;;;;;;;;;;;;;;;5034084;28;20098;-69
2023/05/29 11:25:34;;;;;;;12.88;6.63;;;;;;;;;;5033990;28;19913;-69
2023/05/29 11:28:00;;;;;;;7.93;5.30;;;;;;;;;;5034032;28;20037;-69
2023/05/29 11:30:27;;;;;;;14.27;6.20;;;;;;;;;;5033838;28;20021;-69
2023/05/29 11:32:53;;;;;;;8.57;5.30;;;;;;;;;;5034149;28;20037;-69
2023/05/29 11:35:22;;;;;;;10.95;5.30;;;;;;;;;;5033715;28;20403;-69
2023/05/29 11:37:50;;;;;;;15.88;5.68;;;;;;;;;;5033862;28;20484;-69
2023/05/29 11:40:16;;;;;;;10.35;5.72;;;;;;;;;;5033576;28;20032;-69
2023/05/29 11:42:44;;;;;;;15.85;6.05;;;;;;;;;;5033705;28;20036;-69
2023/05/29 11:45:14;;;;;;;14.68;5.93;;;;;;;;;;5033732;28;20401;-69
2023/05/29 11:47:57;;;;;;;11.55;6.10;;;;;;;;;;5033932;28;20018;-69
2023/05/29 11:50:24;;;;;;;12.73;5.20;;;;;;;;;;5033448;28;20131;-69
2023/05/29 11:52:53;;;;;;;11.80;5.40;;;;;;;;;;5033371;28;20022;-69
2023/05/29 11:55:20;;;;;;;10.73;5.50;;;;;;;;;;5033753;28;20033;-69
2023/05/29 11:57:47;;;;;;;11.35;5.60;;;;;;;;;;5044130;28;20021;-69
2023/05/29 12:00:15;;;;;;;9.75;5.53;;;;;;;;;;5052680;28;20028;-68
2023/05/29 12:02:46;;;;;;;12.98;5.68;;;;;;;;;;5052065;28;20029;-69
2023/05/29 12:05:18;;;;;;;11.32;6.00;;;;;;;;;;5052969;28;20389;-69
2023/05/29 12:07:57;;;;;;;9.93;5.60;;;;;;;;;;5053180;28;20550;-69
2023/05/29 12:10:24;;;;;;;15.20;6.00;;;;;;;;;;5052995;28;20025;-69
2023/05/29 12:12:52;;;;;;;15.98;5.90;;;;;;;;;;5053010;28;20039;-69
2023/05/29 12:15:18;;;;;;;10.82;5.90;;;;;;;;;;5053252;28;20013;-69
2023/05/29 12:17:45;;;;;;;14.32;5.93;;;;;;;;;;5053273;28;20028;-69
2023/05/29 12:20:12;;;;;;;15.45;6.18;;;;;;;;;;5052655;28;20434;-68
2023/05/29 12:22:43;;;;;;;11.18;6.70;;;;;;;;;;5052660;28;20025;-69
2023/05/29 12:25:11;;;;;;;12.90;6.93;;;;;;;;;;5052852;28;20043;-69
2023/05/29 12:27:42;;;;;;;14.90;6.25;;;;;;;;;;5052689;28;20019;-69
2023/05/29 12:30:14;;;;;;;11.60;6.03;;;;;;;;;;5052634;28;20035;-69
2023/05/29 12:32:41;;;;;;;12.55;6.68;;;;;;;;;;5052799;28;20025;-68
2023/05/29 12:35:12;;;;;;;14.60;6.85;;;;;;;;;;5052459;28;20035;-69
2023/05/29 12:37:47;;;;;;;13.30;6.78;;;;;;;;;;5052765;28;20027;-69
2023/05/29 12:40:16;;;;;;;11.38;6.40;;;;;;;;;;5052523;28;20031;-69
2023/05/29 12:42:43;;;;;;;10.65;6.75;;;;;;;;;;5052541;28;20397;-69
2023/05/29 12:45:09;;;;;;;9.52;6.10;;;;;;;;;;5052447;28;20035;-69
2023/05/29 12:47:36;;;;;;;12.98;6.82;;;;;;;;;;5052578;28;20166;-68
2023/05/29 12:50:20;;;;;;;11.25;5.97;;;;;;;;;;5052284;28;20035;-68
2023/05/29 12:52:47;;;;;;;10.70;6.55;;;;;;;;;;5052311;28;20043;-69
2023/05/29 12:55:13;;;;;;;10.65;6.70;;;;;;;;;;5052394;28;20393;-69
2023/05/29 12:57:40;;;;;;;10.32;6.60;;;;;;;;;;5052140;28;20074;-69
2023/05/29 13:00:10;;;;;;;14.70;6.68;;;;;;;;;;5052079;28;20508;-69
2023/05/29 13:02:36;;;;;;;11.30;6.78;;;;;;;;;;5051809;28;20523;-69
2023/05/29 13:05:02;;;;;;;9.65;6.95;;;;;;;;;;5052537;28;20037;-69
2023/05/29 13:07:30;;;;;;;12.57;6.30;;;;;;;;;;5052107;28;20447;-69
2023/05/29 13:09:56;;;;;;;12.73;5.72;;;;;;;;;;5052153;28;20070;-69
2023/05/29 13:12:23;;;;;;;9.77;5.30;;;;;;;;;;5052070;28;20029;-69
2023/05/29 13:14:49;;;;;;;8.07;5.55;;;;;;;;;;5052034;28;20516;-68
2023/05/29 13:17:17;;;;;;;9.30;5.38;;;;;;;;;;5051893;28;20021;-68
2023/05/29 13:19:43;;;;;;;9.93;5.88;;;;;;;;;;5052160;28;20024;-69
2023/05/29 13:22:10;;;;;;;11.27;5.70;;;;;;;;;;5051913;28;20071;-69
2023/05/29 13:24:36;;;;;;;8.90;5.22;;;;;;;;;;5051920;28;20051;-69
2023/05/29 13:27:03;;;;;;;8.90;5.45;;;;;;;;;;5051802;28;20021;-69
2023/05/29 13:29:29;;;;;;;9.20;5.30;;;;;;;;;;5051863;28;20021;-69
2023/05/29 13:31:55;;;;;;;10.35;5.10;;;;;;;;;;5051981;28;20029;-68
2023/05/29 13:34:25;;;;;;;10.85;5.15;;;;;;;;;;5051802;28;20489;-69
2023/05/29 13:36:51;;;;;;;10.98;5.22;;;;;;;;;;5051791;28;20500;-69
2023/05/29 13:39:18;;;;;;;10.02;5.47;;;;;;;;;;5051753;28;20419;-69
2023/05/29 13:41:44;;;;;;;9.85;5.20;;;;;;;;;;5051861;28;20154;-69
2023/05/29 13:44:11;;;;;;;13.18;5.47;;;;;;;;;;5051472;28;20033;-69
2023/05/29 13:46:38;;;;;;;10.18;5.53;;;;;;;;;;5051704;28;20555;-69
2023/05/29 13:49:04;;;;;;;9.60;5.40;;;;;;;;;;5051863;28;20031;-69
2023/05/29 13:51:31;;;;;;;11.07;5.53;;;;;;;;;;5051717;28;20400;-69
2023/05/29 13:53:57;;;;;;;8.25;5.38;;;;;;;;;;5051782;28;20017;-69
2023/05/29 13:56:26;;;;;;;12.23;5.20;;;;;;;;;;5051835;28;20037;-69
2023/05/29 13:58:53;;;;;;;11.57;5.88;;;;;;;;;;5051900;28;20027;-69
2023/05/29 14:01:19;;;;;;;11.30;5.72;;;;;;;;;;5051467;28;20021;-69
2023/05/29 14:03:46;;;;;;;10.00;5.68;;;;;;;;;;5051767;28;20490;-68
2023/05/29 14:06:12;;;;;;;11.32;5.50;;;;;;;;;;5051588;28;20013;-69
2023/05/29 14:08:39;;;;;;;7.65;5.10;;;;;;;;;;5051437;28;20029;-69
2023/05/29 14:11:05;;;;;;;7.95;5.07;;;;;;;;;;5051482;28;20021;-69
2023/05/29 14:13:31;;;;;;;9.23;5.70;;;;;;;;;;5051553;28;20037;-68
2023/05/29 14:15:57;;;;;;;7.72;5.28;;;;;;;;;;5051551;28;20033;-69
2023/05/29 14:18:24;;;;;;;10.13;5.35;;;;;;;;;;5051403;28;20029;-69
2023/05/29 14:20:50;;;;;;;12.02;5.75;;;;;;;;;;5050297;28;20058;-69
2023/05/29 14:23:17;;;;;;;8.52;5.20;;;;;;;;;;5054498;28;20518;-69
2023/05/29 14:25:44;;;;;;;11.48;5.70;;;;;;;;;;5055198;28;20029;-68
2023/05/29 14:28:10;;;;;;;12.25;6.03;;;;;;;;;;5054787;28;20024;-69
2023/05/29 14:30:40;;;;;;;9.40;5.30;;;;;;;;;;5053644;28;20047;-68
2023/05/29 14:33:06;;;;;;;8.57;5.32;;;;;;;;;;5055147;28;20022;-69
2023/05/29 14:35:32;;;;;;;9.30;5.22;;;;;;;;;;5054884;28;20082;-69
2023/05/29 14:37:59;;;;;;;7.95;5.50;;;;;;;;;;5054886;28;20024;-69
2023/05/29 14:40:25;;;;;;;7.40;5.20;;;;;;;;;;5054992;28;20087;-68